Time;durP1;ratioP1;P1;durP2;ratioP2;P2;SDS_P1;SDS_P2;PMS_P1;PMS_P2;Temp;Humidity;BMP_temperature;BMP_pressure;BME280_temperature;BME280_humidity;BME280_pressure;Samples;Min_cycle;Max_cycle;Signal;HPM_P1;HPM_P2
2024/01/17 00:00:18;;;;;;;1999.90;999.90;;;-0.30;99.90;;;;;;5069540;28;20753;-69
2024/01/17 00:02:45;;;;;;;1999.90;999.90;;;-0.40;99.90;;;;;;5065054;28;20427;-66
2024/01/17 00:05:12;;;;;;;1999.90;999.90;;;-0.40;99.90;;;;;;5058684;28;20428;-67
2024/01/17 00:07:38;;;;;;;1999.90;999.90;;;-0.40;99.90;;;;;;5066928;28;20424;-68
2024/01/17 00:10:06;;;;;;;1999.90;999.90;;;-0.30;99.90;;;;;;5068206;28;20408;-65
2024/01/17 00:12:33;;;;;;;1999.90;999.90;;;-0.20;99.90;;;;;;5060195;28;20435;-69
2024/01/17 00:15:01;;;;;;;1999.90;999.90;;;-0.30;99.90;;;;;;5065968;28;20443;-66
2024/01/17 00:17:28;;;;;;;1999.90;999.90;;;-0.50;99.90;;;;;;5067653;28;20416;-64
2024/01/17 00:19:55;;;;;;;1999.90;999.90;;;-0.40;99.90;;;;;;5070061;28;20423;-67
2024/01/17 00:22:22;;;;;;;1999.90;999.90;;;-0.30;99.90;;;;;;5055867;28;20482;-68
2024/01/17 00:24:51;;;;;;;1999.90;999.90;;;-0.30;99.90;;;;;;5067547;28;20423;-67
2024/01/17 00:27:18;;;;;;;1999.90;999.90;;;-0.30;99.90;;;;;;5068005;28;20518;-69
2024/01/17 00:29:45;;;;;;;1999.90;999.90;;;-0.30;99.90;;;;;;5069873;28;20412;-67
2024/01/17 00:32:13;;;;;;;1999.90;999.90;;;-0.20;99.90;;;;;;5075549;28;20498;-66
2024/01/17 00:34:40;;;;;;;1999.90;999.90;;;0.10;99.90;;;;;;5068820;28;20407;-67
2024/01/17 00:37:07;;;;;;;1999.90;999.90;;;-0.40;99.90;;;;;;5070030;28;20411;-67
2024/01/17 00:39:33;;;;;;;1999.90;999.90;;;-0.40;99.90;;;;;;5069348;28;20486;-67
2024/01/17 00:42:00;;;;;;;1999.90;999.90;;;-0.60;99.90;;;;;;5070493;28;20437;-63
2024/01/17 00:44:28;;;;;;;1999.90;999.90;;;-0.70;99.90;;;;;;5069211;28;20427;-66
2024/01/17 00:46:55;;;;;;;1999.90;999.90;;;-0.80;99.90;;;;;;5072267;28;20415;-66
2024/01/17 00:49:23;;;;;;;1999.90;999.90;;;-0.80;99.90;;;;;;5078654;28;20415;-67
2024/01/17 00:51:49;;;;;;;1999.90;999.90;;;-0.80;99.90;;;;;;5084167;28;20408;-67
2024/01/17 00:54:16;;;;;;;1999.90;999.90;;;-0.60;99.90;;;;;;5084643;28;20497;-67
2024/01/17 00:56:43;;;;;;;1999.90;999.90;;;-0.60;99.90;;;;;;5080429;28;20469;-67
2024/01/17 00:59:09;;;;;;;1999.90;999.90;;;-0.80;99.90;;;;;;5072729;28;20411;-66
2024/01/17 01:01:36;;;;;;;1999.90;999.90;;;-0.90;99.90;;;;;;5081364;28;20412;-66
2024/01/17 01:04:03;;;;;;;1999.90;999.90;;;-1.00;99.90;;;;;;5066920;28;20426;-66
2024/01/17 01:06:31;;;;;;;1999.90;999.90;;;-0.70;99.90;;;;;;5075268;28;20441;-66
2024/01/17 01:08:57;;;;;;;1999.90;999.90;;;-1.00;99.90;;;;;;5080444;28;20472;-66
2024/01/17 01:11:24;;;;;;;1999.90;999.90;;;-1.00;99.90;;;;;;5078950;28;20828;-67
2024/01/17 01:13:51;;;;;;;1999.90;999.90;;;-1.00;99.90;;;;;;5079421;28;20473;-67
2024/01/17 01:16:17;;;;;;;1999.90;999.90;;;-1.00;99.90;;;;;;5071977;28;20418;-66
2024/01/17 01:18:44;;;;;;;1999.90;999.90;;;-0.70;99.90;;;;;;5072516;28;20415;-65
2024/01/17 01:21:11;;;;;;;1999.90;999.90;;;-1.10;99.90;;;;;;5076847;28;20489;-67
2024/01/17 01:23:39;;;;;;;1999.90;999.90;;;-0.80;99.90;;;;;;5076093;28;20427;-63
2024/01/17 01:26:06;;;;;;;1999.90;999.90;;;-1.10;99.90;;;;;;5072671;28;20460;-67
2024/01/17 01:28:32;;;;;;;1999.90;999.90;;;-1.30;99.90;;;;;;5081123;28;20414;-66
2024/01/17 01:30:59;;;;;;;1999.90;999.90;;;-1.30;99.90;;;;;;5093029;28;20500;-71
2024/01/17 01:33:26;;;;;;;1999.90;999.90;;;-1.40;99.90;;;;;;5093499;28;20517;-66
2024/01/17 01:35:52;;;;;;;1999.90;999.90;;;-1.20;99.90;;;;;;5096890;28;20473;-69
2024/01/17 01:38:19;;;;;;;1999.90;999.90;;;-1.20;99.90;;;;;;5103616;28;20486;-67
2024/01/17 01:40:47;;;;;;;1999.90;999.90;;;-1.40;99.90;;;;;;5083158;28;20422;-66
2024/01/17 01:43:20;;;;;;;1999.90;999.90;;;-1.40;99.90;;;;;;5076553;28;20433;-65
2024/01/17 01:46:05;;;;;;;1999.90;999.90;;;-1.40;99.90;;;;;;5075349;28;20465;-63
2024/01/17 01:48:33;;;;;;;1999.90;999.90;;;-1.40;99.90;;;;;;5081843;28;20409;-65
2024/01/17 01:50:59;;;;;;;1999.90;999.90;;;-1.40;99.90;;;;;;5072136;28;20438;-64
2024/01/17 01:53:28;;;;;;;1999.90;999.90;;;-1.20;99.90;;;;;;5071938;28;20404;-66
2024/01/17 01:55:57;;;;;;;1999.90;999.90;;;-1.30;99.90;;;;;;5072644;28;20415;-64
2024/01/17 01:58:24;;;;;;;1999.90;999.90;;;-1.50;99.90;;;;;;5071608;28;20420;-64
2024/01/17 02:00:52;;;;;;;1999.90;999.90;;;-1.80;99.90;;;;;;5074317;28;20489;-69
2024/01/17 02:03:20;;;;;;;1999.90;999.90;;;-1.80;99.90;;;;;;5071878;28;20427;-64
2024/01/17 02:05:48;;;;;;;1999.90;999.90;;;-1.70;99.90;;;;;;5087321;28;20441;-67
2024/01/17 02:08:15;;;;;;;1999.90;999.90;;;-1.70;99.90;;;;;;5078984;28;20466;-64
2024/01/17 02:10:41;;;;;;;1999.90;999.90;;;-1.80;99.90;;;;;;5067342;28;20437;-67
2024/01/17 02:13:09;;;;;;;1999.90;999.90;;;-1.80;99.90;;;;;;5073657;28;20412;-67
2024/01/17 02:15:36;;;;;;;1999.90;999.90;;;-1.80;99.90;;;;;;5091534;28;20436;-68
2024/01/17 02:18:04;;;;;;;1999.90;999.90;;;-1.80;99.90;;;;;;5087900;28;20846;-66
2024/01/17 02:20:31;;;;;;;1999.90;999.90;;;-1.50;99.90;;;;;;5079065;28;20438;-66
2024/01/17 02:22:58;;;;;;;1999.90;999.90;;;-1.50;99.90;;;;;;5067700;28;20787;-64
2024/01/17 02:25:26;;;;;;;1999.90;999.90;;;-1.50;99.90;;;;;;5077159;28;20470;-64
2024/01/17 02:27:53;;;;;;;1999.90;999.90;;;-1.60;99.90;;;;;;5073674;28;20407;-65
2024/01/17 02:30:19;;;;;;;1999.90;999.90;;;-1.60;99.90;;;;;;5082471;28;20410;-65
2024/01/17 02:32:48;;;;;;;1999.90;999.90;;;-1.70;99.90;;;;;;5073679;28;20441;-63
2024/01/17 02:35:15;;;;;;;1999.90;999.90;;;-1.70;99.90;;;;;;5069685;28;20485;-65
2024/01/17 02:37:42;;;;;;;1999.90;999.90;;;-1.80;99.90;;;;;;5069307;28;20461;-65
2024/01/17 02:40:09;;;;;;;1999.90;999.90;;;-1.80;99.90;;;;;;5073393;28;20505;-65
2024/01/17 02:42:37;;;;;;;1999.90;999.90;;;-1.60;99.90;;;;;;5076897;28;20413;-66
2024/01/17 02:45:04;;;;;;;1999.90;999.90;;;-1.50;99.90;;;;;;5080013;28;20451;-65
2024/01/17 02:47:31;;;;;;;1999.90;999.90;;;-1.60;99.90;;;;;;5070963;28;20465;-62
2024/01/17 02:49:58;;;;;;;1999.90;999.90;;;-1.60;99.90;;;;;;5072582;28;20415;-64
2024/01/17 02:52:25;;;;;;;1999.90;999.90;;;-1.60;99.90;;;;;;5073383;28;20420;-66
2024/01/17 02:54:52;;;;;;;1999.90;999.90;;;-1.70;99.90;;;;;;5072068;28;20775;-63
2024/01/17 02:57:20;;;;;;;1999.90;999.90;;;-1.80;99.90;;;;;;5071953;28;20432;-66
2024/01/17 02:59:48;;;;;;;1999.90;999.90;;;-1.80;99.90;;;;;;5069881;28;20437;-63
2024/01/17 03:02:15;;;;;;;1999.90;999.90;;;-1.50;99.90;;;;;;5074070;28;20467;-66
2024/01/17 03:04:42;;;;;;;1999.90;999.90;;;-1.70;99.90;;;;;;5072864;28;20424;-67
2024/01/17 03:07:08;;;;;;;1999.90;999.90;;;-1.70;99.90;;;;;;5067354;28;20852;-65
2024/01/17 03:09:37;;;;;;;1999.90;999.90;;;-1.80;99.90;;;;;;5072547;28;20415;-61
2024/01/17 03:12:04;;;;;;;1999.90;999.90;;;-1.80;99.90;;;;;;5078136;28;20487;-61
2024/01/17 03:14:31;;;;;;;1999.90;999.90;;;-1.90;99.90;;;;;;5069705;28;20403;-65
2024/01/17 03:16:59;;;;;;;1999.90;999.90;;;-1.90;99.90;;;;;;5068989;28;20515;-62
2024/01/17 03:19:26;;;;;;;1999.90;999.90;;;-2.00;99.90;;;;;;5079286;28;20462;-65
2024/01/17 03:21:53;;;;;;;1999.90;999.90;;;-2.00;99.90;;;;;;5077555;28;20419;-67
2024/01/17 03:24:19;;;;;;;1999.90;999.90;;;-2.00;99.90;;;;;;5088841;28;20490;-66
2024/01/17 03:26:46;;;;;;;1999.90;999.90;;;-2.10;99.90;;;;;;5071340;28;20427;-65
2024/01/17 03:29:13;;;;;;;1999.90;999.90;;;-2.10;99.90;;;;;;5071582;28;20416;-64
2024/01/17 03:31:40;;;;;;;1999.90;999.90;;;-2.10;99.90;;;;;;5073669;28;20952;-64
2024/01/17 03:34:07;;;;;;;1999.90;999.90;;;-2.10;99.90;;;;;;5074167;28;20459;-64
2024/01/17 03:36:34;;;;;;;1999.90;999.90;;;-2.20;99.90;;;;;;5077923;28;20431;-63
2024/01/17 03:39:01;;;;;;;1999.90;999.90;;;-2.20;99.90;;;;;;5071205;28;20414;-63
2024/01/17 03:41:28;;;;;;;1999.90;999.90;;;-2.20;99.90;;;;;;5076454;28;20782;-64
2024/01/17 03:43:55;;;;;;;1999.90;999.90;;;-2.20;99.90;;;;;;5071984;28;20485;-65
2024/01/17 03:46:21;;;;;;;1999.90;999.90;;;-1.60;99.90;;;;;;5073560;28;20435;-65
2024/01/17 03:48:48;;;;;;;1999.90;999.90;;;-2.10;99.90;;;;;;5069348;28;20473;-65
2024/01/17 03:51:16;;;;;;;1999.90;999.90;;;-2.10;99.90;;;;;;5069118;28;20449;-65
2024/01/17 03:53:43;;;;;;;1999.90;999.90;;;-2.20;99.90;;;;;;5068930;28;20540;-66
2024/01/17 03:56:09;;;;;;;1999.90;999.90;;;-2.30;99.90;;;;;;5067970;28;20906;-67
2024/01/17 03:58:36;;;;;;;1999.90;999.90;;;-2.40;99.90;;;;;;5068725;28;20786;-64
2024/01/17 04:01:03;;;;;;;1999.90;999.90;;;-2.40;99.90;;;;;;5074889;28;20425;-63
2024/01/17 04:03:29;;;;;;;1999.90;999.90;;;-2.40;99.90;;;;;;5069491;28;20820;-65
2024/01/17 04:05:56;;;;;;;1999.90;999.90;;;-2.30;99.90;;;;;;5070091;28;20482;-65
2024/01/17 04:08:24;;;;;;;1999.90;999.90;;;-2.40;99.90;;;;;;5074563;28;20412;-60
2024/01/17 04:10:51;;;;;;;1999.90;999.90;;;-2.60;99.90;;;;;;5069705;28;20489;-66
2024/01/17 04:13:17;;;;;;;1999.90;999.90;;;-2.60;99.90;;;;;;5072211;28;21168;-65
2024/01/17 04:15:44;;;;;;;1999.90;999.90;;;-2.60;99.90;;;;;;5069611;28;20469;-63
2024/01/17 04:18:10;;;;;;;1999.90;999.90;;;-2.70;99.90;;;;;;5068959;28;20466;-67
2024/01/17 04:20:37;;;;;;;1999.90;999.90;;;-2.60;99.90;;;;;;5069362;28;20427;-66
2024/01/17 04:23:04;;;;;;;1999.90;999.90;;;-2.70;99.90;;;;;;5076569;28;20412;-67
2024/01/17 04:25:32;;;;;;;1999.90;999.90;;;-2.80;99.90;;;;;;5080030;28;20422;-69
2024/01/17 04:27:59;;;;;;;1999.90;999.90;;;-2.60;99.90;;;;;;5073102;28;20462;-65
2024/01/17 04:30:26;;;;;;;1999.90;999.90;;;-2.70;99.90;;;;;;5070501;28;20438;-61
2024/01/17 04:32:52;;;;;;;1999.90;999.90;;;-2.80;99.90;;;;;;5077320;28;20477;-63
2024/01/17 04:35:20;;;;;;;1999.90;999.90;;;-3.00;99.90;;;;;;5077258;28;20467;-66
2024/01/17 04:37:47;;;;;;;1999.90;999.90;;;-3.00;99.90;;;;;;5089033;28;20427;-68
2024/01/17 04:40:14;;;;;;;1999.90;999.90;;;-2.90;99.90;;;;;;5079463;28;20431;-65
2024/01/17 04:42:43;;;;;;;1999.90;999.90;;;-3.00;99.90;;;;;;5075118;28;20976;-69
2024/01/17 04:45:11;;;;;;;1999.90;999.90;;;-3.00;99.90;;;;;;5076823;28;20422;-65
2024/01/17 04:47:37;;;;;;;1999.90;999.90;;;-2.90;99.90;;;;;;5087633;28;20780;-67
2024/01/17 04:50:05;;;;;;;1999.90;999.90;;;-2.90;99.90;;;;;;5089660;28;20419;-66
2024/01/17 04:52:31;;;;;;;1999.90;999.90;;;-2.80;99.90;;;;;;5086564;28;20445;-67
2024/01/17 04:54:58;;;;;;;1999.90;999.90;;;-2.80;99.90;;;;;;5093643;28;20408;-67
2024/01/17 04:57:25;;;;;;;1999.90;999.90;;;-2.90;99.90;;;;;;5084774;28;20411;-67
2024/01/17 04:59:53;;;;;;;1999.90;999.90;;;-3.00;99.90;;;;;;5073881;28;20411;-64
2024/01/17 05:02:20;;;;;;;1999.90;999.90;;;-3.00;99.90;;;;;;5072852;28;20411;-67
2024/01/17 05:04:46;;;;;;;1999.90;999.90;;;-2.90;99.90;;;;;;5071596;28;20426;-66
2024/01/17 05:07:13;;;;;;;1999.90;999.90;;;-3.00;99.90;;;;;;5075570;28;20443;-67
2024/01/17 05:09:40;;;;;;;1999.90;999.90;;;-2.90;99.90;;;;;;5072229;28;20461;-65
2024/01/17 05:12:07;;;;;;;1999.90;999.90;;;-3.00;99.90;;;;;;5083938;28;20482;-63
2024/01/17 05:14:34;;;;;;;1999.90;999.90;;;-3.00;99.90;;;;;;5069576;28;20427;-65
2024/01/17 05:17:02;;;;;;;1999.90;999.90;;;-3.30;99.90;;;;;;5075924;28;20914;-65
2024/01/17 05:19:28;;;;;;;1999.90;999.90;;;-3.40;99.90;;;;;;5073252;28;20411;-61
2024/01/17 05:21:55;;;;;;;1999.90;999.90;;;-3.50;99.90;;;;;;5081095;28;20411;-63
2024/01/17 05:24:21;;;;;;;1999.90;999.90;;;-3.20;99.90;;;;;;5077941;28;20428;-63
2024/01/17 05:26:48;;;;;;;1999.90;999.90;;;-3.20;99.90;;;;;;5069293;28;20463;-64
2024/01/17 05:29:15;;;;;;;1999.90;999.90;;;-3.10;99.90;;;;;;5082535;28;20417;-62
2024/01/17 05:31:41;;;;;;;1999.90;999.90;;;-3.00;99.90;;;;;;5080579;28;20406;-65
2024/01/17 05:34:09;;;;;;;1999.90;999.90;;;-3.20;99.90;;;;;;5087368;28;20414;-64
2024/01/17 05:36:37;;;;;;;1999.90;999.90;;;-3.10;99.90;;;;;;5070254;28;20432;-63
2024/01/17 05:39:04;;;;;;;1999.90;999.90;;;-3.10;99.90;;;;;;5071401;28;20417;-65
2024/01/17 05:41:31;;;;;;;1999.90;999.90;;;-3.00;99.90;;;;;;5076506;28;20899;-63
2024/01/17 05:43:58;;;;;;;1999.90;999.90;;;-3.00;99.90;;;;;;5077606;28;20477;-61
2024/01/17 05:46:24;;;;;;;1999.90;999.90;;;-3.00;99.90;;;;;;5072393;28;20424;-64
2024/01/17 05:48:51;;;;;;;1999.90;999.90;;;-3.10;99.90;;;;;;5071787;28;20493;-65
2024/01/17 05:51:19;;;;;;;1999.90;999.90;;;-3.10;99.90;;;;;;5074745;28;20968;-64
2024/01/17 05:53:45;;;;;;;1999.90;999.90;;;-3.30;99.90;;;;;;5082281;28;20410;-68
2024/01/17 05:56:13;;;;;;;1999.90;999.90;;;-3.40;99.90;;;;;;5075291;28;20483;-66
2024/01/17 05:58:39;;;;;;;1999.90;999.90;;;-3.60;99.90;;;;;;5069899;28;20447;-62
2024/01/17 06:01:06;;;;;;;1999.90;999.90;;;-3.50;99.90;;;;;;5072042;28;20418;-65
2024/01/17 06:03:32;;;;;;;1999.90;999.90;;;-3.40;99.90;;;;;;5069577;28;20478;-64
2024/01/17 06:05:59;;;;;;;1999.90;999.90;;;-3.30;99.90;;;;;;5084468;28;20477;-62
2024/01/17 06:08:27;;;;;;;1999.90;999.90;;;-3.10;99.90;;;;;;5080056;28;20411;-67
2024/01/17 06:10:54;;;;;;;1999.90;999.90;;;-3.10;99.90;;;;;;5071337;28;20404;-62
2024/01/17 06:13:21;;;;;;;1999.90;999.90;;;-3.10;99.90;;;;;;5073111;28;20434;-64
2024/01/17 06:15:47;;;;;;;1999.90;999.90;;;-3.20;99.90;;;;;;5074483;28;20777;-63
2024/01/17 06:18:14;;;;;;;1999.90;999.90;;;-3.20;99.90;;;;;;5075814;28;20426;-65
2024/01/17 06:20:41;;;;;;;1999.90;999.90;;;-3.20;99.90;;;;;;5077170;28;20407;-62
2024/01/17 06:23:07;;;;;;;1999.90;999.90;;;-3.10;99.90;;;;;;5072659;28;20401;-63
2024/01/17 06:25:35;;;;;;;1999.90;999.90;;;-3.10;99.90;;;;;;5069131;28;20438;-62
2024/01/17 06:28:02;;;;;;;1999.90;999.90;;;-3.10;99.90;;;;;;5078984;28;20821;-64
2024/01/17 06:30:29;;;;;;;1999.90;999.90;;;-2.90;99.90;;;;;;5081626;28;20568;-63
2024/01/17 06:32:55;;;;;;;1999.90;999.90;;;-3.00;99.90;;;;;;5072627;28;20439;-65
2024/01/17 06:35:22;;;;;;;1999.90;999.90;;;-3.00;99.90;;;;;;5081505;28;20410;-65
2024/01/17 06:37:48;;;;;;;1999.90;999.90;;;-3.00;99.90;;;;;;5074767;28;20429;-64
2024/01/17 06:40:15;;;;;;;1999.90;999.90;;;-2.90;99.90;;;;;;5077850;28;20406;-65
2024/01/17 06:42:43;;;;;;;1999.90;999.90;;;-2.90;99.90;;;;;;5081764;28;20410;-63
2024/01/17 06:45:11;;;;;;;1999.90;999.90;;;-2.90;99.90;;;;;;5087337;28;20517;-63
2024/01/17 06:47:38;;;;;;;1999.90;999.90;;;-2.90;99.90;;;;;;5066807;28;20515;-65
2024/01/17 06:50:05;;;;;;;1999.90;999.90;;;-2.90;99.90;;;;;;5077847;28;20483;-64
2024/01/17 06:52:31;;;;;;;1999.90;999.90;;;-2.80;99.90;;;;;;5075224;28;20440;-63
2024/01/17 06:54:58;;;;;;;1999.90;999.90;;;-2.80;99.90;;;;;;5084163;28;20473;-67
2024/01/17 06:57:25;;;;;;;1999.90;999.90;;;-2.60;99.90;;;;;;5095044;28;20467;-63
2024/01/17 06:59:53;;;;;;;1999.90;999.90;;;-2.70;99.90;;;;;;5093153;28;20410;-62
2024/01/17 07:02:20;;;;;;;1999.90;999.90;;;-2.70;99.90;;;;;;5075089;28;20842;-64
2024/01/17 07:04:46;;;;;;;1999.90;999.90;;;-2.80;99.90;;;;;;5079467;28;20414;-64
2024/01/17 07:07:13;;;;;;;1999.90;999.90;;;-2.90;99.90;;;;;;5076119;28;20425;-65
2024/01/17 07:09:41;;;;;;;1999.90;999.90;;;-3.00;99.90;;;;;;5073386;28;20453;-64
2024/01/17 07:12:08;;;;;;;1999.90;999.90;;;-3.00;99.90;;;;;;5068268;28;20432;-63
2024/01/17 07:14:34;;;;;;;1999.90;999.90;;;-3.00;99.90;;;;;;5066788;28;20431;-64
2024/01/17 07:17:02;;;;;;;1999.90;999.90;;;-2.90;99.90;;;;;;5078134;28;20422;-68
2024/01/17 07:19:29;;;;;;;1999.90;999.90;;;-2.80;99.90;;;;;;5086914;28;20435;-66
2024/01/17 07:21:56;;;;;;;1999.90;999.90;;;-2.70;99.90;;;;;;5091806;28;20457;-69
2024/01/17 07:24:23;;;;;;;1999.90;999.90;;;-2.60;99.90;;;;;;5096568;28;20428;-65
2024/01/17 07:26:49;;;;;;;1999.90;999.90;;;-2.50;99.90;;;;;;5074784;28;20439;-63
2024/01/17 07:29:16;;;;;;;1999.90;999.90;;;-2.50;99.90;;;;;;5074023;28;20409;-67
2024/01/17 07:31:42;;;;;;;1999.90;999.90;;;-2.60;99.90;;;;;;5073264;28;20481;-64
2024/01/17 07:34:10;;;;;;;1999.90;999.90;;;-2.50;99.90;;;;;;5083642;28;20436;-66
2024/01/17 07:36:37;;;;;;;1999.90;999.90;;;-2.20;99.90;;;;;;5088516;28;20416;-65
2024/01/17 07:39:05;;;;;;;1999.90;999.90;;;-2.50;99.90;;;;;;5066810;28;20508;-67
2024/01/17 07:41:32;;;;;;;1999.90;999.90;;;-2.50;99.90;;;;;;5067488;28;20455;-61
2024/01/17 07:43:58;;;;;;;1999.90;999.90;;;-2.50;99.90;;;;;;5074743;28;20424;-65
2024/01/17 07:46:25;;;;;;;1999.90;999.90;;;-2.50;99.90;;;;;;5069498;28;20423;-65
2024/01/17 07:48:52;;;;;;;1999.90;999.90;;;-2.60;99.90;;;;;;5077868;28;20473;-64
2024/01/17 07:51:20;;;;;;;1999.90;999.90;;;-2.60;99.90;;;;;;5065745;28;20521;-64
2024/01/17 07:53:46;;;;;;;1999.90;999.90;;;-2.70;99.90;;;;;;5073595;28;20439;-64
2024/01/17 07:56:13;;;;;;;1999.90;999.90;;;-2.60;99.90;;;;;;5079912;28;20418;-64
2024/01/17 07:58:40;;;;;;;1999.90;999.90;;;-2.10;99.90;;;;;;5071876;28;20400;-67
2024/01/17 08:01:06;;;;;;;1999.90;999.90;;;-2.40;99.90;;;;;;5075981;28;20499;-65
2024/01/17 08:03:33;;;;;;;1999.90;999.90;;;-2.30;99.90;;;;;;5071569;28;20439;-65
2024/01/17 08:06:00;;;;;;;1999.90;999.90;;;-2.30;99.90;;;;;;5074452;28;20427;-67
2024/01/17 08:08:28;;;;;;;1999.90;999.90;;;-2.30;99.90;;;;;;5068016;28;20849;-64
2024/01/17 08:10:55;;;;;;;1999.90;999.90;;;-2.30;99.90;;;;;;5078104;28;20412;-64
2024/01/17 08:13:22;;;;;;;1999.90;999.90;;;-2.20;99.90;;;;;;5066690;28;20426;-65
2024/01/17 08:15:49;;;;;;;1999.90;999.90;;;-2.00;99.90;;;;;;5070994;28;20399;-65
2024/01/17 08:18:16;;;;;;;1999.90;999.90;;;-1.90;99.90;;;;;;5071239;28;20427;-65
2024/01/17 08:20:44;;;;;;;1999.90;999.90;;;-1.90;99.90;;;;;;5077520;28;20438;-68
2024/01/17 08:23:10;;;;;;;1999.90;999.90;;;-1.90;99.90;;;;;;5070906;28;20416;-64
2024/01/17 08:25:38;;;;;;;1999.90;999.90;;;-1.90;99.90;;;;;;5068931;28;20473;-67
2024/01/17 08:28:05;;;;;;;1999.90;999.90;;;-1.70;99.90;;;;;;5070721;28;20434;-65
2024/01/17 08:30:32;;;;;;;1999.90;999.90;;;-1.60;99.90;;;;;;5070585;28;20477;-63
2024/01/17 08:32:59;;;;;;;1999.90;999.90;;;-1.60;99.90;;;;;;5073599;28;20489;-65
2024/01/17 08:35:26;;;;;;;1999.90;999.90;;;-1.50;99.90;;;;;;5069325;28;20469;-65
2024/01/17 08:37:53;;;;;;;1999.90;999.90;;;-1.20;99.90;;;;;;5068205;28;20469;-65
2024/01/17 08:40:20;;;;;;;1999.90;999.90;;;-1.00;99.90;;;;;;5063024;28;20815;-63
2024/01/17 08:42:48;;;;;;;1999.90;999.90;;;-1.00;99.90;;;;;;5063442;28;20427;-63
2024/01/17 08:45:15;;;;;;;1999.90;999.90;;;-1.10;99.90;;;;;;5068013;28;20456;-66
2024/01/17 08:47:43;;;;;;;1999.90;999.90;;;-1.10;99.90;;;;;;5078825;28;20564;-68
2024/01/17 08:50:12;;;;;;;1999.90;999.90;;;-0.80;99.90;;;;;;5085939;28;20423;-65
2024/01/17 08:52:39;;;;;;;1999.90;999.90;;;-0.70;99.90;;;;;;5073182;28;20483;-64
2024/01/17 08:55:08;;;;;;;1999.90;999.90;;;-0.40;99.90;;;;;;5068367;28;20477;-62
2024/01/17 08:57:36;;;;;;;1999.90;999.90;;;-0.40;99.90;;;;;;5069380;28;20422;-65
2024/01/17 09:00:05;;;;;;;1999.90;999.90;;;-0.30;99.90;;;;;;5072538;28;20795;-63
2024/01/17 09:02:32;;;;;;;1999.90;999.90;;;-0.20;99.90;;;;;;5065028;28;20419;-61
2024/01/17 09:04:59;;;;;;;1999.90;999.90;;;-0.20;99.90;;;;;;5074005;28;20412;-65
2024/01/17 09:07:26;;;;;;;1999.90;999.90;;;-0.20;99.90;;;;;;5078428;28;20418;-62
2024/01/17 09:09:52;;;;;;;1999.90;999.90;;;-0.30;99.90;;;;;;5073923;28;20426;-65
2024/01/17 09:12:19;;;;;;;1999.90;999.90;;;-0.20;99.90;;;;;;5089682;28;20406;-66
2024/01/17 09:14:46;;;;;;;1999.90;999.90;;;-0.20;99.90;;;;;;5073938;28;20433;-66
2024/01/17 09:17:14;;;;;;;1999.90;999.90;;;-0.30;99.90;;;;;;5063916;28;20432;-67
2024/01/17 09:19:42;;;;;;;1999.90;999.90;;;-0.20;99.90;;;;;;5069104;28;20485;-65
2024/01/17 09:22:09;;;;;;;1999.90;999.90;;;-0.10;99.90;;;;;;5073582;28;20911;-64
2024/01/17 09:24:36;;;;;;;1999.90;999.90;;;0.00;99.90;;;;;;5085009;28;20463;-66
2024/01/17 09:27:03;;;;;;;1999.90;999.90;;;0.20;99.90;;;;;;5077382;28;20469;-64
2024/01/17 09:29:33;;;;;;;1999.90;999.90;;;0.30;99.90;;;;;;5073313;28;20466;-67
2024/01/17 09:32:00;;;;;;;1999.90;999.90;;;0.40;99.90;;;;;;5077693;28;20415;-67
2024/01/17 09:34:28;;;;;;;1999.90;999.90;;;0.40;99.90;;;;;;5068592;28;20439;-69
2024/01/17 09:36:54;;;;;;;1999.90;999.90;;;0.50;99.90;;;;;;5070388;28;20438;-67
2024/01/17 09:39:22;;;;;;;1999.90;999.90;;;0.50;99.90;;;;;;5065809;28;20434;-66
2024/01/17 09:41:48;;;;;;;1999.90;999.90;;;0.80;99.90;;;;;;5068524;28;20435;-67
2024/01/17 09:44:15;;;;;;;1999.90;999.90;;;1.20;99.90;;;;;;5068815;28;20886;-69
2024/01/17 09:46:44;;;;;;;1999.90;999.90;;;0.80;99.90;;;;;;5070738;28;20425;-67
2024/01/17 09:49:11;;;;;;;1999.90;999.90;;;0.60;99.90;;;;;;5062779;28;20900;-68
2024/01/17 09:51:39;;;;;;;1999.90;999.90;;;0.60;99.90;;;;;;5067586;28;20431;-67
2024/01/17 09:54:06;;;;;;;1999.90;999.90;;;0.70;99.90;;;;;;5068681;28;20469;-65
2024/01/17 09:56:33;;;;;;;1999.90;999.90;;;0.80;99.90;;;;;;5068686;28;20436;-64
2024/01/17 09:59:08;;;;;;;1999.90;999.90;;;0.90;99.90;;;;;;5071754;28;20432;-68
2024/01/17 10:01:37;;;;;;;1999.90;999.90;;;1.10;99.90;;;;;;5068722;28;20488;-64
2024/01/17 10:04:04;;;;;;;1999.90;999.90;;;1.20;99.90;;;;;;5069892;28;20476;-66
2024/01/17 10:06:32;;;;;;;1999.90;999.90;;;1.30;99.90;;;;;;5069852;28;20836;-66
2024/01/17 10:09:01;;;;;;;1999.90;999.90;;;1.60;99.90;;;;;;5070286;28;20904;-67
2024/01/17 10:11:27;;;;;;;1999.90;999.90;;;1.30;99.90;;;;;;5066066;28;20874;-66
2024/01/17 10:13:54;;;;;;;1999.90;999.90;;;1.20;99.90;;;;;;5070964;28;20407;-65
2024/01/17 10:16:20;;;;;;;1999.90;999.90;;;1.20;99.90;;;;;;5072048;28;20497;-67
2024/01/17 10:18:47;;;;;;;1999.90;999.90;;;1.30;99.90;;;;;;5070274;28;20411;-66
2024/01/17 10:21:14;;;;;;;1999.90;999.90;;;1.50;99.90;;;;;;5070447;28;20484;-66
2024/01/17 10:23:41;;;;;;;1999.90;999.90;;;1.80;99.90;;;;;;5070520;28;20818;-65
2024/01/17 10:26:10;;;;;;;1999.90;999.90;;;1.50;99.90;;;;;;5069590;28;20435;-67
2024/01/17 10:28:37;;;;;;;1999.90;999.90;;;1.50;99.90;;;;;;5071531;28;20407;-67
2024/01/17 10:31:04;;;;;;;1999.90;999.90;;;1.70;99.90;;;;;;5070813;28;21068;-65
2024/01/17 10:33:31;;;;;;;1999.90;999.90;;;2.10;99.90;;;;;;5068751;28;20952;-68
2024/01/17 10:35:58;;;;;;;1999.90;999.90;;;2.20;99.90;;;;;;5071655;28;20505;-69
2024/01/17 10:38:31;;;;;;;1999.90;999.90;;;2.00;99.90;;;;;;5068897;28;20481;-65
2024/01/17 10:41:04;;;;;;;1999.90;999.90;;;2.00;99.90;;;;;;5061612;28;20433;-64
2024/01/17 10:43:32;;;;;;;1999.90;999.90;;;1.80;99.90;;;;;;5069322;28;20997;-64
2024/01/17 10:46:02;;;;;;;1999.90;999.90;;;1.60;99.90;;;;;;5068298;28;20413;-67
2024/01/17 10:48:30;;;;;;;1999.90;999.90;;;1.60;99.90;;;;;;5070862;28;20412;-64
2024/01/17 10:51:01;;;;;;;1999.90;999.90;;;1.50;99.90;;;;;;5068691;28;20466;-66
2024/01/17 10:53:30;;;;;;;1999.90;999.90;;;1.60;99.90;;;;;;5069334;28;20431;-66
2024/01/17 10:56:02;;;;;;;1999.90;999.90;;;1.50;99.90;;;;;;5070377;28;20508;-66
2024/01/17 10:58:29;;;;;;;1999.90;999.90;;;1.60;99.90;;;;;;5076608;28;20414;-66
2024/01/17 11:01:01;;;;;;;1999.90;999.90;;;1.90;99.90;;;;;;5074126;28;20468;-67
2024/01/17 11:03:28;;;;;;;1999.90;999.90;;;1.80;99.90;;;;;;5089914;28;20867;-66
2024/01/17 11:05:56;;;;;;;1999.90;999.90;;;1.40;99.90;;;;;;5074177;28;20432;-66
2024/01/17 11:08:24;;;;;;;1999.90;999.90;;;1.50;99.90;;;;;;5075001;28;20470;-67
2024/01/17 11:10:53;;;;;;;1999.90;999.90;;;1.60;99.90;;;;;;5072865;28;20426;-66
2024/01/17 11:13:20;;;;;;;1999.90;999.90;;;1.80;99.90;;;;;;5081829;28;20414;-67
2024/01/17 11:15:49;;;;;;;1999.90;999.90;;;2.00;99.90;;;;;;5071298;28;20498;-64
2024/01/17 11:18:20;;;;;;;1999.90;999.90;;;2.00;99.90;;;;;;5068906;28;20465;-65
2024/01/17 11:20:48;;;;;;;1999.90;999.90;;;2.00;99.90;;;;;;5069778;28;20469;-66
2024/01/17 11:23:26;;;;;;;1999.90;999.90;;;2.00;99.90;;;;;;5076041;28;20412;-67
2024/01/17 11:25:58;;;;;;;1999.90;999.90;;;1.90;99.90;;;;;;5076225;28;20419;-66
2024/01/17 11:28:33;;;;;;;1999.90;999.90;;;1.90;99.90;;;;;;5072845;28;20905;-65
2024/01/17 11:31:14;;;;;;;1999.90;999.90;;;2.20;99.90;;;;;;5070298;28;20416;-66
2024/01/17 11:33:44;;;;;;;1999.90;999.90;;;2.00;99.90;;;;;;5071425;28;20416;-65
2024/01/17 11:36:40;;;;;;;1999.90;999.90;;;1.90;99.90;;;;;;5069929;28;20408;-65
2024/01/17 11:39:08;;;;;;;1999.90;999.90;;;1.90;99.90;;;;;;5074990;28;20439;-64
2024/01/17 11:41:38;;;;;;;1999.90;999.90;;;1.80;99.90;;;;;;5070231;28;20781;-66
2024/01/17 11:44:06;;;;;;;1999.90;999.90;;;1.80;99.90;;;;;;5069334;28;20898;-65
2024/01/17 11:46:34;;;;;;;1999.90;999.90;;;1.90;99.90;;;;;;5077930;28;20428;-66
2024/01/17 11:49:04;;;;;;;1999.90;999.90;;;1.90;99.90;;;;;;5085448;28;20428;-65
2024/01/17 11:51:33;;;;;;;1999.90;999.90;;;1.80;99.90;;;;;;5068680;28;20775;-67
2024/01/17 11:54:00;;;;;;;1999.90;999.90;;;2.10;99.90;;;;;;5069187;28;20489;-65
2024/01/17 11:56:27;;;;;;;1999.90;999.90;;;2.10;99.90;;;;;;5076111;28;20451;-65
2024/01/17 11:59:07;;;;;;;1999.90;999.90;;;2.10;99.90;;;;;;5089538;28;20425;-66
2024/01/17 12:01:41;;;;;;;1999.90;999.90;;;2.10;99.90;;;;;;5080933;28;20438;-64